Time;durP1;ratioP1;P1;durP2;ratioP2;P2;SDS_P1;SDS_P2;PMS_P1;PMS_P2;Temp;Humidity;BMP_temperature;BMP_pressure;BME280_temperature;BME280_humidity;BME280_pressure;Samples;Min_cycle;Max_cycle;Signal;HPM_P1;HPM_P2
2022/07/03 00:00:16;;;;;;;;;1.00;1.00;;;;;;;;4918391;28;45558;-49
2022/07/03 00:02:41;;;;;;;;;1.00;1.00;;;;;;;;4931197;28;45583;-53
2022/07/03 00:05:06;;;;;;;;;1.00;1.00;;;;;;;;4935461;28;45392;-50
2022/07/03 00:07:32;;;;;;;;;1.25;1.25;;;;;;;;4936888;28;45340;-49
2022/07/03 00:09:57;;;;;;;;;0.75;0.75;;;;;;;;4935662;28;45381;-53
2022/07/03 00:12:22;;;;;;;;;1.50;0.00;;;;;;;;4936830;28;46893;-49
2022/07/03 00:14:50;;;;;;;;;1.00;0.75;;;;;;;;4936940;28;45418;-49
2022/07/03 00:17:15;;;;;;;;;1.00;1.00;;;;;;;;4940106;28;45348;-50
2022/07/03 00:19:40;;;;;;;;;1.00;1.00;;;;;;;;4940331;28;45708;-51
2022/07/03 00:22:05;;;;;;;;;0.75;0.25;;;;;;;;4904658;28;45785;-52
2022/07/03 00:24:37;;;;;;;;;1.00;1.00;;;;;;;;4919299;28;45425;-53
2022/07/03 00:27:02;;;;;;;;;1.00;1.00;;;;;;;;4919734;28;45816;-48
2022/07/03 00:29:29;;;;;;;;;1.75;1.75;;;;;;;;4921268;28;45198;-56
2022/07/03 00:31:55;;;;;;;;;1.00;1.00;;;;;;;;4919531;28;45568;-52
2022/07/03 00:34:20;;;;;;;;;2.00;1.00;;;;;;;;4919006;28;45418;-53
2022/07/03 00:36:46;;;;;;;;;1.25;1.00;;;;;;;;4919597;28;45400;-50
2022/07/03 00:39:11;;;;;;;;;0.75;0.75;;;;;;;;4920465;28;45321;-52
2022/07/03 00:41:36;;;;;;;;;1.00;1.00;;;;;;;;4920665;28;46295;-49
2022/07/03 00:44:02;;;;;;;;;1.00;1.00;;;;;;;;4920521;28;45432;-56
2022/07/03 00:46:27;;;;;;;;;1.00;1.00;;;;;;;;4920886;28;45376;-50
2022/07/03 00:48:54;;;;;;;;;2.00;1.00;;;;;;;;4920639;28;45700;-49
2022/07/03 00:51:23;;;;;;;;;1.40;0.40;;;;;;;;4919983;28;47064;-54
2022/07/03 00:53:49;;;;;;;;;0.40;0.40;;;;;;;;4920599;28;45373;-50
2022/07/03 00:56:14;;;;;;;;;0.60;0.60;;;;;;;;4919284;28;45400;-48
2022/07/03 00:58:40;;;;;;;;;1.75;1.75;;;;;;;;4919423;28;45649;-53
2022/07/03 01:01:05;;;;;;;;;1.00;1.00;;;;;;;;4920570;28;46100;-56
2022/07/03 01:03:32;;;;;;;;;0.25;0.25;;;;;;;;4936604;28;45363;-48
2022/07/03 01:05:59;;;;;;;;;0.80;0.80;;;;;;;;4939807;28;45461;-49
2022/07/03 01:08:27;;;;;;;;;1.00;1.00;;;;;;;;4939755;28;45554;-48
2022/07/03 01:11:11;;;;;;;;;1.00;1.00;;;;;;;;4939236;28;45570;-54
2022/07/03 01:13:55;;;;;;;;;1.00;1.00;;;;;;;;4939200;28;45317;-51
2022/07/03 01:16:20;;;;;;;;;1.00;1.00;;;;;;;;4939273;28;45384;-54
2022/07/03 01:19:05;;;;;;;;;0.75;0.75;;;;;;;;4939207;28;45577;-50
2022/07/03 01:21:33;;;;;;;;;1.80;0.80;;;;;;;;4938923;28;46254;-48
2022/07/03 01:24:13;;;;;;;;;0.80;0.80;;;;;;;;4937914;28;45297;-49
2022/07/03 01:26:39;;;;;;;;;0.00;0.00;;;;;;;;4938808;28;45345;-53
2022/07/03 01:29:06;;;;;;;;;1.00;1.00;;;;;;;;4937965;28;45463;-51
2022/07/03 01:31:31;;;;;;;;;1.00;1.00;;;;;;;;4939187;28;45744;-54
2022/07/03 01:33:57;;;;;;;;;1.50;0.50;;;;;;;;4913229;28;45587;-47
2022/07/03 01:36:22;;;;;;;;;0.75;0.75;;;;;;;;4934402;28;45460;-54
2022/07/03 01:38:47;;;;;;;;;1.00;1.00;;;;;;;;4937776;28;45444;-51
2022/07/03 01:41:12;;;;;;;;;3.00;1.00;;;;;;;;4937294;28;45725;-48
2022/07/03 01:43:41;;;;;;;;;0.00;0.00;;;;;;;;4939207;28;45412;-55
2022/07/03 01:46:06;;;;;;;;;1.40;1.40;;;;;;;;4939113;28;45431;-52
2022/07/03 01:48:32;;;;;;;;;0.50;0.50;;;;;;;;4939280;28;45272;-53
2022/07/03 01:50:57;;;;;;;;;0.00;0.00;;;;;;;;4938603;28;46691;-51
2022/07/03 01:53:23;;;;;;;;;2.75;0.75;;;;;;;;4938627;28;45370;-53
2022/07/03 01:55:48;;;;;;;;;0.50;0.00;;;;;;;;4938654;28;45430;-53
2022/07/03 01:58:14;;;;;;;;;0.75;0.75;;;;;;;;4938858;28;45475;-51
2022/07/03 02:00:47;;;;;;;;;0.75;0.75;;;;;;;;4938514;28;46311;-49
2022/07/03 02:03:12;;;;;;;;;0.60;0.60;;;;;;;;4924962;28;45450;-55
2022/07/03 02:05:45;;;;;;;;;0.00;0.00;;;;;;;;4918371;28;45496;-53
2022/07/03 02:08:25;;;;;;;;;0.00;0.00;;;;;;;;4919387;28;45554;-51
2022/07/03 02:11:09;;;;;;;;;0.00;0.00;;;;;;;;4918910;28;45485;-52
2022/07/03 02:13:37;;;;;;;;;0.00;0.00;;;;;;;;4919451;28;45396;-55
2022/07/03 02:16:03;;;;;;;;;0.60;0.60;;;;;;;;4918771;28;45380;-49
2022/07/03 02:18:28;;;;;;;;;0.00;0.00;;;;;;;;4920000;28;45376;-51
2022/07/03 02:21:12;;;;;;;;;0.00;0.00;;;;;;;;4918965;28;45699;-50
2022/07/03 02:23:39;;;;;;;;;0.00;0.00;;;;;;;;4919537;28;45409;-51
2022/07/03 02:26:05;;;;;;;;;0.00;0.00;;;;;;;;4919023;28;45337;-53
2022/07/03 02:28:33;;;;;;;;;0.00;0.00;;;;;;;;4918291;28;45663;-51
2022/07/03 02:31:01;;;;;;;;;1.80;0.00;;;;;;;;4918668;28;45523;-51
2022/07/03 02:33:27;;;;;;;;;1.40;0.00;;;;;;;;4919015;28;45405;-55
2022/07/03 02:35:53;;;;;;;;;1.25;1.25;;;;;;;;4919004;28;45354;-52
2022/07/03 02:38:21;;;;;;;;;0.60;0.60;;;;;;;;4918185;28;45520;-52
2022/07/03 02:41:05;;;;;;;;;0.60;0.20;;;;;;;;4918789;28;46659;-57
2022/07/03 02:43:30;;;;;;;;;0.00;0.00;;;;;;;;4918764;28;45439;-54
2022/07/03 02:48:50;;;;;;;;;0.60;0.60;;;;;;;;4919182;28;45366;-55
2022/07/03 02:51:17;;;;;;;;;1.80;0.60;;;;;;;;4917002;28;45683;-56
2022/07/03 02:53:58;;;;;;;;;1.40;1.20;;;;;;;;4917031;28;45454;-55
2022/07/03 02:56:44;;;;;;;;;0.60;0.60;;;;;;;;4918548;28;45865;-50
2022/07/03 02:59:16;;;;;;;;;1.80;0.60;;;;;;;;4917901;28;45805;-51
2022/07/03 03:01:45;;;;;;;;;0.80;0.80;;;;;;;;4918432;28;46121;-54
2022/07/03 03:04:16;;;;;;;;;0.60;0.60;;;;;;;;4933202;28;45765;-51
2022/07/03 03:06:42;;;;;;;;;0.40;0.40;;;;;;;;4933222;28;45432;-50
2022/07/03 03:09:07;;;;;;;;;0.50;0.50;;;;;;;;4933640;28;45340;-49
2022/07/03 03:11:36;;;;;;;;;1.25;0.25;;;;;;;;4932745;28;46799;-55
2022/07/03 03:14:01;;;;;;;;;2.20;0.60;;;;;;;;4918343;28;45374;-49
2022/07/03 03:16:26;;;;;;;;;0.50;0.50;;;;;;;;4932862;28;45441;-55
2022/07/03 03:18:52;;;;;;;;;0.50;0.50;;;;;;;;4918915;28;45679;-52
2022/07/03 03:21:17;;;;;;;;;2.00;2.00;;;;;;;;4917991;28;45872;-48
2022/07/03 03:23:44;;;;;;;;;2.00;2.00;;;;;;;;4918152;28;45565;-52
2022/07/03 03:26:10;;;;;;;;;1.60;1.60;;;;;;;;4918315;28;45351;-50
2022/07/03 03:28:35;;;;;;;;;1.40;1.40;;;;;;;;4910127;28;46040;-54
2022/07/03 03:31:01;;;;;;;;;8.75;7.25;;;;;;;;4907854;28;46164;-52
2022/07/03 03:33:26;;;;;;;;;3.25;3.25;;;;;;;;4918147;28;45681;-49
2022/07/03 03:35:51;;;;;;;;;1.75;1.50;;;;;;;;4917915;28;45410;-50
2022/07/03 03:38:16;;;;;;;;;2.25;2.25;;;;;;;;4918549;28;45661;-51
2022/07/03 03:40:42;;;;;;;;;0.00;0.00;;;;;;;;4916310;28;45728;-52
2022/07/03 03:43:07;;;;;;;;;2.00;2.00;;;;;;;;4916955;28;45458;-50
2022/07/03 03:45:32;;;;;;;;;2.00;2.00;;;;;;;;4917983;28;45317;-52
2022/07/03 03:47:57;;;;;;;;;2.75;1.25;;;;;;;;4917282;28;45352;-56
2022/07/03 03:50:23;;;;;;;;;0.50;0.50;;;;;;;;4921335;28;45732;-54
2022/07/03 03:52:48;;;;;;;;;1.75;1.75;;;;;;;;4921157;28;45308;-50
2022/07/03 03:55:13;;;;;;;;;2.00;1.25;;;;;;;;4921536;28;45499;-53
2022/07/03 03:57:39;;;;;;;;;1.25;1.25;;;;;;;;4921574;28;45369;-54
2022/07/03 04:00:04;;;;;;;;;1.00;1.00;;;;;;;;4921212;28;45737;-56
2022/07/03 04:02:30;;;;;;;;;1.00;1.00;;;;;;;;4927376;28;45375;-52
2022/07/03 04:04:55;;;;;;;;;1.75;1.75;;;;;;;;4940284;28;45956;-55
2022/07/03 04:07:20;;;;;;;;;2.50;1.00;;;;;;;;4940700;28;45874;-51
2022/07/03 04:09:46;;;;;;;;;1.00;1.00;;;;;;;;4940363;28;46676;-52
2022/07/03 04:12:11;;;;;;;;;1.00;1.00;;;;;;;;4940034;28;45336;-52
2022/07/03 04:14:36;;;;;;;;;3.00;3.00;;;;;;;;4940542;28;45296;-50
2022/07/03 04:17:02;;;;;;;;;2.50;2.50;;;;;;;;4939868;28;45512;-50
2022/07/03 04:19:27;;;;;;;;;3.00;2.00;;;;;;;;4940652;28;46520;-49
2022/07/03 04:21:52;;;;;;;;;1.75;1.75;;;;;;;;4939972;28;45372;-54
2022/07/03 04:24:18;;;;;;;;;2.25;1.25;;;;;;;;4940796;28;45387;-51
2022/07/03 04:26:43;;;;;;;;;3.00;3.00;;;;;;;;4940498;28;45436;-50
2022/07/03 04:29:08;;;;;;;;;3.75;3.75;;;;;;;;4939829;28;46823;-52
2022/07/03 04:31:33;;;;;;;;;3.00;3.00;;;;;;;;4939183;28;45391;-51
2022/07/03 04:33:59;;;;;;;;;2.25;2.25;;;;;;;;4940137;28;45432;-51
2022/07/03 04:36:24;;;;;;;;;2.00;2.00;;;;;;;;4940454;28;45388;-53
2022/07/03 04:38:49;;;;;;;;;1.00;1.00;;;;;;;;4939910;28;45888;-48
2022/07/03 04:41:15;;;;;;;;;1.00;1.00;;;;;;;;4940009;28;45407;-51
2022/07/03 04:43:40;;;;;;;;;1.50;1.50;;;;;;;;4940620;28;45421;-50
2022/07/03 04:46:05;;;;;;;;;1.00;1.00;;;;;;;;4940281;28;45417;-51
2022/07/03 04:48:30;;;;;;;;;2.75;2.75;;;;;;;;4940034;28;46903;-50
2022/07/03 04:50:56;;;;;;;;;1.00;1.00;;;;;;;;4939821;28;45489;-51
2022/07/03 04:53:21;;;;;;;;;1.00;1.00;;;;;;;;4939825;28;45386;-50
2022/07/03 04:55:46;;;;;;;;;2.00;2.00;;;;;;;;4940262;28;45440;-50
2022/07/03 04:58:12;;;;;;;;;1.00;1.00;;;;;;;;4939594;28;45973;-50
2022/07/03 05:00:37;;;;;;;;;2.00;1.00;;;;;;;;4939105;28;45380;-51
2022/07/03 05:03:02;;;;;;;;;2.75;2.25;;;;;;;;4929885;28;45278;-56
2022/07/03 05:05:28;;;;;;;;;2.00;2.00;;;;;;;;4920756;28;45423;-52
2022/07/03 05:07:53;;;;;;;;;1.50;1.50;;;;;;;;4920388;28;45874;-49
2022/07/03 05:10:18;;;;;;;;;1.25;0.00;;;;;;;;4919236;28;45394;-55
2022/07/03 05:12:43;;;;;;;;;1.50;1.50;;;;;;;;4920329;28;45399;-49
2022/07/03 05:15:09;;;;;;;;;1.00;1.00;;;;;;;;4920537;28;45305;-49
2022/07/03 05:17:34;;;;;;;;;2.25;1.00;;;;;;;;4919854;28;46378;-50
2022/07/03 05:22:44;;;;;;;;;1.00;1.00;;;;;;;;4920010;28;45406;-51
2022/07/03 05:25:09;;;;;;;;;0.00;0.00;;;;;;;;4920297;28;45341;-48
2022/07/03 05:27:35;;;;;;;;;0.00;0.00;;;;;;;;4919758;28;45789;-52
2022/07/03 05:30:00;;;;;;;;;1.20;1.20;;;;;;;;4918553;28;45425;-55
2022/07/03 05:32:26;;;;;;;;;1.00;1.00;;;;;;;;4919954;28;45369;-50
2022/07/03 05:34:51;;;;;;;;;1.75;1.75;;;;;;;;4920129;28;45269;-54
2022/07/03 05:37:16;;;;;;;;;1.75;1.75;;;;;;;;4919729;28;46955;-54
2022/07/03 05:39:42;;;;;;;;;0.00;0.00;;;;;;;;4920065;28;45293;-54
2022/07/03 05:42:10;;;;;;;;;1.00;1.00;;;;;;;;4919009;28;45678;-53
2022/07/03 05:44:36;;;;;;;;;1.00;1.00;;;;;;;;4919335;28;45586;-49
2022/07/03 05:47:01;;;;;;;;;0.75;0.75;;;;;;;;4918572;28;45452;-49
2022/07/03 05:49:27;;;;;;;;;1.25;1.25;;;;;;;;4918550;28;45404;-55
2022/07/03 05:51:52;;;;;;;;;1.00;0.00;;;;;;;;4919893;28;45308;-52
2022/07/03 05:54:17;;;;;;;;;2.00;2.00;;;;;;;;4919769;28;45358;-50
2022/07/03 05:56:43;;;;;;;;;0.00;0.00;;;;;;;;4919154;28;45703;-52
2022/07/03 05:59:08;;;;;;;;;0.50;0.50;;;;;;;;4919690;28;45629;-54
2022/07/03 06:01:33;;;;;;;;;1.75;1.75;;;;;;;;4919406;28;45413;-49
2022/07/03 06:03:58;;;;;;;;;1.25;1.25;;;;;;;;4936318;28;45581;-51
2022/07/03 06:06:24;;;;;;;;;1.50;1.50;;;;;;;;4938312;28;46656;-48
2022/07/03 06:08:49;;;;;;;;;1.00;1.00;;;;;;;;4938782;28;45750;-49
2022/07/03 06:11:15;;;;;;;;;1.00;1.00;;;;;;;;4921833;28;45364;-51
2022/07/03 06:13:40;;;;;;;;;1.00;1.00;;;;;;;;4921427;28;45538;-51
2022/07/03 06:16:05;;;;;;;;;1.50;1.00;;;;;;;;4938487;28;45716;-51
2022/07/03 06:18:31;;;;;;;;;1.00;1.00;;;;;;;;4938489;28;45371;-52
2022/07/03 06:20:56;;;;;;;;;1.00;1.00;;;;;;;;4938896;28;45333;-50
2022/07/03 06:23:21;;;;;;;;;4.50;1.50;;;;;;;;4938739;28;45499;-49
2022/07/03 06:25:46;;;;;;;;;1.00;1.00;;;;;;;;4938391;28;46702;-55
2022/07/03 06:28:12;;;;;;;;;1.50;1.50;;;;;;;;4938350;28;45387;-52
2022/07/03 06:30:37;;;;;;;;;2.00;2.00;;;;;;;;4938623;28;45351;-49
2022/07/03 06:33:02;;;;;;;;;1.00;1.00;;;;;;;;4938643;28;45392;-49
2022/07/03 06:35:28;;;;;;;;;0.75;0.50;;;;;;;;4938153;28;46490;-55
2022/07/03 06:37:53;;;;;;;;;1.50;1.50;;;;;;;;4937760;28;45399;-49
2022/07/03 06:40:18;;;;;;;;;1.25;1.25;;;;;;;;4937565;28;45399;-49
2022/07/03 06:42:43;;;;;;;;;2.00;2.00;;;;;;;;4935755;28;45452;-49
2022/07/03 06:45:09;;;;;;;;;3.75;2.00;;;;;;;;4937978;28;46182;-50
2022/07/03 06:47:38;;;;;;;;;0.25;0.25;;;;;;;;4938107;28;45398;-50
2022/07/03 06:50:03;;;;;;;;;1.40;1.40;;;;;;;;4938245;28;45271;-54
2022/07/03 06:52:29;;;;;;;;;3.50;3.50;;;;;;;;4938280;28;45286;-48
2022/07/03 06:54:54;;;;;;;;;7.00;4.00;;;;;;;;4937670;28;46470;-51
2022/07/03 06:57:19;;;;;;;;;5.00;2.75;;;;;;;;4938053;28;45315;-55
2022/07/03 06:59:44;;;;;;;;;5.25;5.00;;;;;;;;4938123;28;45350;-47
2022/07/03 07:02:10;;;;;;;;;4.00;4.00;;;;;;;;4938081;28;45333;-52
2022/07/03 07:04:35;;;;;;;;;3.50;3.50;;;;;;;;4937912;28;45321;-54
2022/07/03 07:07:00;;;;;;;;;6.00;3.00;;;;;;;;4936387;28;45396;-47
2022/07/03 07:09:26;;;;;;;;;6.00;5.25;;;;;;;;4938330;28;45286;-51
2022/07/03 07:11:51;;;;;;;;;5.00;3.75;;;;;;;;4937960;28;45369;-49
2022/07/03 07:14:16;;;;;;;;;4.50;3.75;;;;;;;;4937714;28;45984;-47
2022/07/03 07:16:41;;;;;;;;;3.00;3.00;;;;;;;;4937488;28;45342;-50
2022/07/03 07:19:07;;;;;;;;;3.50;3.00;;;;;;;;4937471;28;45429;-48
2022/07/03 07:21:32;;;;;;;;;5.50;4.00;;;;;;;;4938201;28;45324;-54
2022/07/03 07:23:57;;;;;;;;;4.00;3.75;;;;;;;;4935888;28;46714;-50
2022/07/03 07:26:23;;;;;;;;;4.00;4.00;;;;;;;;4938021;28;45406;-51
2022/07/03 07:28:48;;;;;;;;;3.50;3.50;;;;;;;;4906719;28;45333;-52
2022/07/03 07:31:13;;;;;;;;;6.75;5.00;;;;;;;;4937960;28;45217;-49
2022/07/03 07:33:38;;;;;;;;;4.25;4.00;;;;;;;;4937386;28;46771;-47
2022/07/03 07:36:04;;;;;;;;;4.50;4.50;;;;;;;;4937730;28;45397;-51
2022/07/03 07:38:29;;;;;;;;;3.00;3.00;;;;;;;;4937819;28;45411;-55
2022/07/03 07:40:54;;;;;;;;;5.00;5.00;;;;;;;;4938155;28;45583;-53
2022/07/03 07:43:20;;;;;;;;;3.75;3.75;;;;;;;;4935971;28;46655;-53
2022/07/03 07:45:45;;;;;;;;;6.00;6.00;;;;;;;;4937767;28;45369;-52
2022/07/03 07:48:10;;;;;;;;;4.50;4.50;;;;;;;;4937194;28;45668;-55
2022/07/03 07:50:35;;;;;;;;;4.50;4.25;;;;;;;;4938065;28;45303;-54
2022/07/03 07:53:01;;;;;;;;;5.00;3.75;;;;;;;;4937205;28;45388;-48
2022/07/03 07:55:26;;;;;;;;;3.50;3.50;;;;;;;;4937238;28;45463;-47
2022/07/03 07:57:51;;;;;;;;;4.00;3.25;;;;;;;;4937790;28;45280;-51
2022/07/03 08:00:17;;;;;;;;;3.50;3.50;;;;;;;;4937499;28;45554;-54
2022/07/03 08:05:35;;;;;;;;;3.60;3.60;;;;;;;;4937341;28;45408;-56
2022/07/03 08:08:04;;;;;;;;;4.00;2.40;;;;;;;;4936345;28;45277;-46
2022/07/03 08:10:32;;;;;;;;;4.40;2.80;;;;;;;;4936078;28;45514;-51
2022/07/03 08:12:58;;;;;;;;;6.20;5.40;;;;;;;;4937369;28;45975;-54
2022/07/03 08:15:23;;;;;;;;;3.00;3.00;;;;;;;;4937072;28;45400;-51
2022/07/03 08:17:48;;;;;;;;;5.00;5.00;;;;;;;;4936883;28;45287;-49
2022/07/03 08:20:14;;;;;;;;;1.50;1.50;;;;;;;;4916427;28;45782;-52
2022/07/03 08:22:39;;;;;;;;;4.00;4.00;;;;;;;;4934334;28;46643;-47
2022/07/03 08:25:04;;;;;;;;;3.25;3.25;;;;;;;;4936681;28;45288;-47
2022/07/03 08:27:30;;;;;;;;;3.25;3.25;;;;;;;;4936627;28;45395;-51
2022/07/03 08:29:55;;;;;;;;;2.50;2.00;;;;;;;;4936967;28;45310;-53
2022/07/03 08:32:21;;;;;;;;;3.50;2.25;;;;;;;;4912225;28;46064;-50
2022/07/03 08:34:46;;;;;;;;;2.75;2.75;;;;;;;;4911262;28;46915;-52
2022/07/03 08:37:12;;;;;;;;;11.50;10.50;;;;;;;;4930839;28;45466;-56
2022/07/03 08:39:37;;;;;;;;;2.75;1.75;;;;;;;;4935905;28;45933;-49
2022/07/03 08:42:04;;;;;;;;;3.75;3.75;;;;;;;;4934238;28;48026;-46
2022/07/03 08:44:29;;;;;;;;;2.60;2.40;;;;;;;;4935321;28;45796;-47
2022/07/03 08:46:55;;;;;;;;;3.25;3.25;;;;;;;;4932637;28;45536;-54
2022/07/03 08:49:21;;;;;;;;;2.80;2.80;;;;;;;;4928177;28;45490;-54
2022/07/03 08:51:47;;;;;;;;;3.00;3.00;;;;;;;;4916230;28;46576;-54
2022/07/03 08:54:12;;;;;;;;;2.75;2.75;;;;;;;;4926808;28;45564;-53
2022/07/03 08:56:37;;;;;;;;;4.75;2.00;;;;;;;;4935406;28;45395;-51
2022/07/03 08:59:03;;;;;;;;;4.75;3.75;;;;;;;;4926932;28;45548;-47
2022/07/03 09:01:29;;;;;;;;;1.00;1.00;;;;;;;;4914214;28;46581;-48
2022/07/03 09:03:54;;;;;;;;;3.75;3.75;;;;;;;;4927890;28;45401;-50
2022/07/03 09:06:20;;;;;;;;;5.00;4.00;;;;;;;;4932525;28;45404;-52
2022/07/03 09:08:46;;;;;;;;;3.00;3.00;;;;;;;;4933749;28;45394;-56
2022/07/03 09:11:12;;;;;;;;;1.20;1.20;;;;;;;;4928535;28;46690;-56
2022/07/03 09:13:38;;;;;;;;;2.00;2.00;;;;;;;;4928308;28;45447;-50
2022/07/03 09:16:03;;;;;;;;;2.75;2.25;;;;;;;;4916040;28;45348;-48
2022/07/03 09:18:38;;;;;;;;;2.80;2.80;;;;;;;;4923340;28;45442;-56
2022/07/03 09:21:03;;;;;;;;;3.20;2.00;;;;;;;;4929138;28;45877;-54
2022/07/03 09:23:32;;;;;;;;;2.50;1.75;;;;;;;;4925606;28;45437;-48
2022/07/03 09:26:02;;;;;;;;;3.40;2.00;;;;;;;;4919676;28;45500;-50
2022/07/03 09:28:47;;;;;;;;;2.20;2.20;;;;;;;;4935486;28;45464;-53
2022/07/03 09:31:14;;;;;;;;;3.00;3.00;;;;;;;;4909058;28;46663;-55
2022/07/03 09:33:52;;;;;;;;;9.40;5.20;;;;;;;;4933811;28;45411;-52
2022/07/03 09:36:17;;;;;;;;;3.20;3.00;;;;;;;;4912062;28;45764;-57
2022/07/03 09:38:43;;;;;;;;;2.25;2.25;;;;;;;;4921957;28;45489;-52
2022/07/03 09:41:09;;;;;;;;;2.00;2.00;;;;;;;;4915743;28;46533;-56
2022/07/03 09:43:34;;;;;;;;;4.00;2.50;;;;;;;;4915957;28;45484;-52
2022/07/03 09:46:00;;;;;;;;;3.75;1.50;;;;;;;;4915521;28;45354;-46
2022/07/03 09:48:25;;;;;;;;;2.50;2.50;;;;;;;;4917838;28;45534;-52
2022/07/03 09:51:10;;;;;;;;;1.00;1.00;;;;;;;;4926023;28;45993;-55
2022/07/03 09:53:47;;;;;;;;;2.80;2.20;;;;;;;;4931613;28;46060;-55
2022/07/03 09:56:13;;;;;;;;;1.80;1.80;;;;;;;;4934433;28;45517;-53
2022/07/03 09:58:38;;;;;;;;;4.00;4.00;;;;;;;;4933506;28;45731;-50
2022/07/03 10:01:19;;;;;;;;;4.00;3.00;;;;;;;;4917923;28;46557;-54
2022/07/03 10:03:45;;;;;;;;;2.60;2.60;;;;;;;;4923076;28;45504;-49
2022/07/03 10:06:11;;;;;;;;;3.00;3.00;;;;;;;;4932048;28;45569;-55
2022/07/03 10:08:36;;;;;;;;;1.50;1.50;;;;;;;;4933913;28;45451;-54
2022/07/03 10:11:01;;;;;;;;;2.25;2.25;;;;;;;;4932441;28;46154;-50
2022/07/03 10:13:27;;;;;;;;;2.50;2.50;;;;;;;;4912499;28;45436;-49
2022/07/03 10:15:52;;;;;;;;;4.00;3.00;;;;;;;;4913855;28;45903;-49
2022/07/03 10:18:18;;;;;;;;;3.75;3.75;;;;;;;;4914391;28;45845;-54
2022/07/03 10:20:43;;;;;;;;;3.00;3.00;;;;;;;;4911912;28;46017;-49
2022/07/03 10:23:08;;;;;;;;;3.75;3.75;;;;;;;;4931442;28;45449;-53
2022/07/03 10:25:34;;;;;;;;;4.25;3.00;;;;;;;;4914458;28;45995;-56
2022/07/03 10:27:59;;;;;;;;;2.25;2.25;;;;;;;;4913212;28;45763;-55
2022/07/03 10:30:25;;;;;;;;;4.00;3.75;;;;;;;;4914505;28;46371;-56
2022/07/03 10:32:51;;;;;;;;;4.00;4.00;;;;;;;;4929847;28;45364;-54
2022/07/03 10:35:20;;;;;;;;;4.00;2.80;;;;;;;;4936333;28;45528;-45
2022/07/03 10:38:05;;;;;;;;;4.00;3.00;;;;;;;;4936954;28;45395;-56
2022/07/03 10:46:25;;;;;;;;;5.00;4.00;;;;;;;;4938035;28;45356;-50
2022/07/03 10:49:00;;;;;;;;;2.75;2.00;;;;;;;;4938766;28;45780;-49
2022/07/03 10:51:26;;;;;;;;;4.00;4.00;;;;;;;;4937510;28;45865;-57
2022/07/03 10:54:11;;;;;;;;;3.25;3.25;;;;;;;;4937816;28;45335;-51
2022/07/03 10:56:55;;;;;;;;;3.00;3.00;;;;;;;;4937943;28;45433;-54
2022/07/03 10:59:20;;;;;;;;;4.40;4.40;;;;;;;;4937178;28;45611;-48
2022/07/03 11:01:45;;;;;;;;;5.00;5.00;;;;;;;;4937772;28;45546;-54
2022/07/03 11:04:10;;;;;;;;;5.00;5.00;;;;;;;;4931880;28;45391;-52
2022/07/03 11:06:46;;;;;;;;;4.50;4.50;;;;;;;;4921950;28;45446;-49
2022/07/03 11:09:12;;;;;;;;;3.20;3.20;;;;;;;;4938288;28;45340;-48
2022/07/03 11:11:56;;;;;;;;;4.00;4.00;;;;;;;;4937333;28;45696;-49
2022/07/03 11:14:25;;;;;;;;;6.80;6.40;;;;;;;;4937864;28;45308;-49
2022/07/03 11:17:09;;;;;;;;;4.00;4.00;;;;;;;;4937434;28;45431;-49
2022/07/03 11:19:34;;;;;;;;;5.40;5.00;;;;;;;;4937850;28;45590;-49
2022/07/03 11:22:00;;;;;;;;;6.00;5.00;;;;;;;;4937524;28;46097;-52
2022/07/03 11:24:48;;;;;;;;;4.25;4.25;;;;;;;;4937453;28;45355;-51
2022/07/03 11:27:14;;;;;;;;;5.00;5.00;;;;;;;;4934875;28;45462;-49
2022/07/03 11:29:39;;;;;;;;;5.40;5.40;;;;;;;;4937267;28;45360;-49
2022/07/03 11:32:23;;;;;;;;;7.50;5.00;;;;;;;;4937299;28;46550;-49
2022/07/03 11:34:48;;;;;;;;;5.80;4.60;;;;;;;;4937147;28;45303;-46
2022/07/03 11:37:19;;;;;;;;;3.50;3.50;;;;;;;;4937913;28;45338;-50
2022/07/03 11:39:44;;;;;;;;;5.00;4.00;;;;;;;;4936364;28;45796;-52
2022/07/03 11:42:10;;;;;;;;;4.00;3.00;;;;;;;;4937221;28;45946;-48
2022/07/03 11:44:35;;;;;;;;;3.00;3.00;;;;;;;;4937288;28;45408;-47
2022/07/03 11:47:00;;;;;;;;;6.00;4.00;;;;;;;;4937223;28;45419;-52
2022/07/03 11:49:27;;;;;;;;;4.50;4.25;;;;;;;;4936761;28;45422;-54
2022/07/03 11:51:59;;;;;;;;;2.60;2.60;;;;;;;;4936891;28;47672;-54
2022/07/03 11:54:24;;;;;;;;;7.80;7.40;;;;;;;;4937351;28;45447;-54
2022/07/03 11:56:50;;;;;;;;;2.75;2.75;;;;;;;;4937177;28;45275;-49
2022/07/03 11:59:15;;;;;;;;;4.50;3.25;;;;;;;;4937753;28;45328;-46
2022/07/03 12:01:40;;;;;;;;;1.75;1.75;;;;;;;;4936844;28;45472;-50
2022/07/03 12:04:06;;;;;;;;;3.50;3.00;;;;;;;;4936974;28;45718;-53
2022/07/03 12:06:35;;;;;;;;;3.80;2.00;;;;;;;;4937250;28;45300;-55
2022/07/03 12:09:01;;;;;;;;;2.40;2.40;;;;;;;;4937166;28;45351;-52
2022/07/03 12:11:26;;;;;;;;;2.00;2.00;;;;;;;;4940290;28;46221;-55
2022/07/03 12:13:52;;;;;;;;;3.00;2.75;;;;;;;;4939113;28;45428;-51
2022/07/03 12:16:18;;;;;;;;;1.40;1.40;;;;;;;;4939124;28;45236;-49
2022/07/03 12:18:47;;;;;;;;;1.00;1.00;;;;;;;;4940909;28;45519;-51
2022/07/03 12:21:12;;;;;;;;;3.80;2.80;;;;;;;;4940274;28;46500;-54
2022/07/03 12:23:44;;;;;;;;;1.25;1.25;;;;;;;;4940662;28;45372;-53
2022/07/03 12:26:10;;;;;;;;;2.40;1.40;;;;;;;;4940421;28;45436;-48
2022/07/03 12:28:35;;;;;;;;;2.00;2.00;;;;;;;;4940902;28;45695;-48
2022/07/03 12:31:00;;;;;;;;;2.00;2.00;;;;;;;;4939147;28;46007;-49
2022/07/03 12:33:25;;;;;;;;;3.00;2.00;;;;;;;;4939316;28;45389;-52
2022/07/03 12:36:04;;;;;;;;;2.50;1.50;;;;;;;;4940679;28;45352;-52
2022/07/03 12:38:29;;;;;;;;;2.00;2.00;;;;;;;;4940903;28;45523;-49
2022/07/03 12:41:05;;;;;;;;;1.75;1.00;;;;;;;;4940373;28;46715;-48
2022/07/03 12:43:39;;;;;;;;;2.00;2.00;;;;;;;;4940516;28;45420;-48
2022/07/03 12:46:17;;;;;;;;;0.60;0.60;;;;;;;;4938956;28;45254;-55
2022/07/03 12:48:49;;;;;;;;;1.40;1.40;;;;;;;;4940750;28;45570;-53
2022/07/03 12:51:14;;;;;;;;;1.00;1.00;;;;;;;;4940006;28;45752;-52
2022/07/03 12:53:41;;;;;;;;;2.00;2.00;;;;;;;;4938960;28;45302;-52
2022/07/03 12:56:07;;;;;;;;;3.00;1.20;;;;;;;;4939858;28;45221;-52
2022/07/03 13:01:23;;;;;;;;;3.60;1.00;;;;;;;;4939693;28;45832;-49
2022/07/03 13:03:48;;;;;;;;;1.00;1.00;;;;;;;;4934318;28;45388;-48
2022/07/03 13:06:14;;;;;;;;;1.00;1.00;;;;;;;;4920858;28;45354;-50
2022/07/03 13:08:48;;;;;;;;;1.00;1.00;;;;;;;;4919693;28;45421;-51
2022/07/03 13:11:13;;;;;;;;;0.60;0.60;;;;;;;;4919316;28;46375;-51
2022/07/03 13:13:47;;;;;;;;;1.50;1.00;;;;;;;;4919744;28;45379;-53
2022/07/03 13:16:23;;;;;;;;;0.80;0.80;;;;;;;;4920450;28;45656;-53
2022/07/03 13:19:00;;;;;;;;;1.00;1.00;;;;;;;;4920339;28;45453;-51
2022/07/03 13:21:25;;;;;;;;;3.00;1.20;;;;;;;;4917721;28;47467;-54
2022/07/03 13:23:50;;;;;;;;;1.75;1.00;;;;;;;;4920363;28;45371;-48
2022/07/03 13:26:16;;;;;;;;;1.00;1.00;;;;;;;;4920283;28;45362;-48
2022/07/03 13:28:41;;;;;;;;;1.25;1.00;;;;;;;;4920515;28;45290;-48
2022/07/03 13:31:06;;;;;;;;;1.00;1.00;;;;;;;;4920107;28;46735;-53
2022/07/03 13:33:31;;;;;;;;;2.00;0.50;;;;;;;;4919893;28;45436;-49
2022/07/03 13:35:57;;;;;;;;;1.00;1.00;;;;;;;;4920143;28;45386;-52
2022/07/03 13:38:22;;;;;;;;;3.00;1.50;;;;;;;;4920365;28;45588;-49
2022/07/03 13:40:47;;;;;;;;;2.00;2.00;;;;;;;;4919806;28;45978;-51
2022/07/03 13:43:12;;;;;;;;;1.50;0.75;;;;;;;;4920072;28;45360;-50
2022/07/03 13:45:38;;;;;;;;;1.00;1.00;;;;;;;;4919905;28;45472;-52
2022/07/03 13:48:03;;;;;;;;;2.00;2.00;;;;;;;;4920087;28;45362;-46
2022/07/03 13:50:28;;;;;;;;;3.00;0.00;;;;;;;;4919672;28;47174;-48
2022/07/03 13:52:54;;;;;;;;;1.00;1.00;;;;;;;;4918465;28;45480;-55
2022/07/03 13:55:19;;;;;;;;;1.00;1.00;;;;;;;;4918642;28;45397;-51
2022/07/03 13:57:44;;;;;;;;;1.00;1.00;;;;;;;;4919898;28;45397;-52
2022/07/03 14:00:10;;;;;;;;;1.00;1.00;;;;;;;;4919896;28;45527;-54
2022/07/03 14:02:36;;;;;;;;;0.00;0.00;;;;;;;;4919217;28;45723;-56
2022/07/03 14:05:02;;;;;;;;;0.60;0.60;;;;;;;;4923813;28;45352;-56
2022/07/03 14:07:27;;;;;;;;;1.00;1.00;;;;;;;;4936107;28;45498;-51
2022/07/03 14:09:52;;;;;;;;;1.00;1.00;;;;;;;;4930390;28;45484;-51
2022/07/03 14:12:18;;;;;;;;;0.50;0.00;;;;;;;;4938626;28;45422;-49
2022/07/03 14:14:43;;;;;;;;;1.00;1.00;;;;;;;;4920851;28;45347;-51
2022/07/03 14:17:08;;;;;;;;;0.00;0.00;;;;;;;;4919555;28;45296;-51
2022/07/03 14:19:33;;;;;;;;;0.50;0.50;;;;;;;;4919820;28;46270;-50
2022/07/03 14:21:59;;;;;;;;;2.50;1.25;;;;;;;;4919401;28;45343;-49
2022/07/03 14:24:24;;;;;;;;;1.00;1.00;;;;;;;;4919953;28;45363;-47
2022/07/03 14:32:29;;;;;;;;;0.60;0.60;;;;;;;;4938516;28;45397;-49
2022/07/03 14:34:54;;;;;;;;;0.00;0.00;;;;;;;;4938431;28;45325;-54
2022/07/03 14:37:19;;;;;;;;;0.00;0.00;;;;;;;;4939293;28;45275;-52
2022/07/03 14:39:45;;;;;;;;;2.25;1.00;;;;;;;;4938718;28;46710;-47
2022/07/03 14:42:10;;;;;;;;;1.00;1.00;;;;;;;;4938201;28;45308;-50
2022/07/03 14:44:36;;;;;;;;;0.50;0.00;;;;;;;;4938714;28;45221;-52
2022/07/03 14:47:01;;;;;;;;;1.00;1.00;;;;;;;;4938745;28;45150;-50
2022/07/03 14:49:26;;;;;;;;;2.00;1.00;;;;;;;;4938481;28;46394;-50
2022/07/03 14:51:52;;;;;;;;;2.25;1.25;;;;;;;;4938213;28;45295;-52
2022/07/03 14:54:18;;;;;;;;;0.25;0.25;;;;;;;;4938373;28;45535;-53
2022/07/03 14:56:46;;;;;;;;;1.00;1.00;;;;;;;;4938696;28;45405;-51
2022/07/03 14:59:11;;;;;;;;;3.20;1.80;;;;;;;;4936923;28;45465;-52
2022/07/03 15:01:37;;;;;;;;;0.00;0.00;;;;;;;;4937514;28;45442;-54
2022/07/03 15:04:04;;;;;;;;;0.00;0.00;;;;;;;;4918152;28;45441;-51